Main page
METAR-TAF:

METAR-TAF

Airports :

Schoolcraft County Airport

Manistique, Michigan, United States

latitude: 45-58-29N, longitude: 086-10-19W, elevation: 686 ft

Current weather observation

The report was made 29 minutes ago, at 18:15 UTC
Wind 13 mph from the South/Southeast
Temperature 41°F
Humidity 45%
Pressure 30.30 in. Hg
Visibility: 10 miles
Clear sky

METAR: KISQ 241815Z AUTO 15011KT 10SM CLR 05/M06 A3030 RMK AO2 T00491058

Time: 14:44 (18:44 UTC)


TAF: missing

Weather observations and forecasts of more than 4000 airports (METAR and TAF reports).

The available stations are represented by yellow and red dots on the map.

Hover mouse over dot to see the name of the station.

Then click to see weather observations and forecasts.

To change the map : click on the green buttons with a black cross to zoom in, on the green button with a dash to zoom out, or on the green arrows for adjacent maps.


METAR-TAF: